createdAt,value
2022-10-30T00:00:34.577Z,1014.28
2022-10-30T00:01:34.592Z,1014.28
2022-10-30T00:02:34.676Z,1014.30
2022-10-30T00:03:34.599Z,1014.28
2022-10-30T00:04:34.577Z,1014.29
2022-10-30T00:05:34.567Z,1014.32
2022-10-30T00:06:34.583Z,1014.30
2022-10-30T00:07:34.568Z,1014.34
2022-10-30T00:08:34.575Z,1014.29
2022-10-30T00:09:34.572Z,1014.25
2022-10-30T00:10:34.561Z,1014.24
2022-10-30T00:11:34.585Z,1014.24
2022-10-30T00:12:34.574Z,1014.20
2022-10-30T00:13:34.585Z,1014.24
2022-10-30T00:14:34.592Z,1014.22
2022-10-30T00:15:34.565Z,1014.24
2022-10-30T00:16:34.584Z,1014.20
2022-10-30T00:17:34.577Z,1014.17
2022-10-30T00:18:34.569Z,1014.15
2022-10-30T00:19:34.613Z,1014.14
2022-10-30T00:20:34.570Z,1014.09
2022-10-30T00:21:34.598Z,1014.08
2022-10-30T00:22:34.590Z,1014.15
2022-10-30T00:23:34.611Z,1014.06
2022-10-30T00:24:34.603Z,1014.08
2022-10-30T00:25:34.599Z,1014.04
2022-10-30T00:26:34.593Z,1014.03
2022-10-30T00:27:34.609Z,1014.05
2022-10-30T00:28:34.580Z,1014.07
2022-10-30T00:29:34.599Z,1014.10
2022-10-30T00:30:34.594Z,1014.08
2022-10-30T00:31:34.979Z,1014.12
2022-10-30T00:32:34.596Z,1014.07
2022-10-30T00:33:34.584Z,1014.15
2022-10-30T00:34:34.582Z,1014.10
2022-10-30T00:35:34.669Z,1014.12
2022-10-30T00:36:34.583Z,1014.14
2022-10-30T00:37:34.609Z,1014.08
2022-10-30T00:38:34.588Z,1014.08
2022-10-30T00:39:34.657Z,1014.06
2022-10-30T00:40:34.588Z,1014.06
2022-10-30T00:41:34.592Z,1014.13
2022-10-30T00:42:34.610Z,1014.06
2022-10-30T00:43:34.629Z,1014.07
2022-10-30T00:44:34.617Z,1014.07
2022-10-30T00:45:34.638Z,1014.01
2022-10-30T00:46:34.597Z,1014.03
2022-10-30T00:47:34.607Z,1013.98
2022-10-30T00:48:34.618Z,1013.98
2022-10-30T00:49:34.621Z,1013.97
2022-10-30T00:50:34.616Z,1013.95
2022-10-30T00:51:34.606Z,1013.96
2022-10-30T00:52:34.616Z,1013.98
2022-10-30T00:53:34.609Z,1013.89
2022-10-30T00:54:34.632Z,1013.88
2022-10-30T00:55:34.604Z,1013.88
2022-10-30T00:56:34.619Z,1013.84
2022-10-30T00:57:34.609Z,1013.87
2022-10-30T00:58:34.623Z,1013.92
2022-10-30T00:59:34.616Z,1013.85
2022-10-30T01:00:34.624Z,1013.88
2022-10-30T01:01:34.714Z,1013.83
2022-10-30T01:02:34.663Z,1013.84
2022-10-30T01:03:34.659Z,1013.84
2022-10-30T01:04:34.627Z,1013.88
2022-10-30T01:05:34.637Z,1013.82
2022-10-30T01:06:34.612Z,1013.85
2022-10-30T01:07:34.619Z,1013.79
2022-10-30T01:08:34.643Z,1013.85
2022-10-30T01:09:34.636Z,1013.85
2022-10-30T01:10:34.628Z,1013.82
2022-10-30T01:11:34.617Z,1013.83
2022-10-30T01:12:34.645Z,1013.83
2022-10-30T01:13:34.619Z,1013.87
2022-10-30T01:14:34.619Z,1013.89
2022-10-30T01:15:34.624Z,1013.86
2022-10-30T01:16:34.661Z,1013.84
2022-10-30T01:17:34.642Z,1013.92
2022-10-30T01:18:34.650Z,1013.88
2022-10-30T01:19:34.624Z,1013.88
2022-10-30T01:20:34.636Z,1013.90
2022-10-30T01:21:34.638Z,1013.90
2022-10-30T01:22:34.624Z,1013.82
2022-10-30T01:23:35.709Z,1013.85
2022-10-30T01:24:34.757Z,1013.89
2022-10-30T01:25:34.645Z,1013.86
2022-10-30T01:26:34.669Z,1013.83
2022-10-30T01:27:34.650Z,1013.79
2022-10-30T01:28:34.639Z,1013.80
2022-10-30T01:29:34.998Z,1013.82
2022-10-30T01:30:34.656Z,1013.83
2022-10-30T01:31:34.650Z,1013.85
2022-10-30T01:32:34.675Z,1013.85
2022-10-30T01:33:34.647Z,1013.84
2022-10-30T01:34:34.680Z,1013.88
2022-10-30T01:35:34.633Z,1013.83
2022-10-30T01:36:34.656Z,1013.82
2022-10-30T01:37:34.647Z,1013.81
2022-10-30T01:38:34.650Z,1013.83
2022-10-30T01:39:34.632Z,1013.77
2022-10-30T01:40:34.674Z,1013.75
2022-10-30T01:41:34.649Z,1013.77
2022-10-30T01:42:34.656Z,1013.75
2022-10-30T01:43:34.654Z,1013.77
2022-10-30T01:44:34.658Z,1013.75
2022-10-30T01:45:34.659Z,1013.75
2022-10-30T01:46:34.653Z,1013.76
2022-10-30T01:47:34.648Z,1013.76
2022-10-30T01:48:34.725Z,1013.76
2022-10-30T01:49:34.656Z,1013.75
2022-10-30T01:50:34.646Z,1013.70
2022-10-30T01:51:34.656Z,1013.73
2022-10-30T01:52:34.655Z,1013.69
2022-10-30T01:53:34.659Z,1013.63
2022-10-30T01:54:34.665Z,1013.58
2022-10-30T01:55:34.658Z,1013.59
2022-10-30T01:56:34.661Z,1013.56
2022-10-30T01:57:34.645Z,1013.54
2022-10-30T01:58:34.650Z,1013.55
2022-10-30T01:59:34.685Z,1013.54
2022-10-30T02:00:34.660Z,1013.59
2022-10-30T02:01:34.756Z,1013.60
2022-10-30T02:02:34.784Z,1013.60
2022-10-30T02:03:34.695Z,1013.58
2022-10-30T02:04:34.672Z,1013.59
2022-10-30T02:05:34.694Z,1013.60
2022-10-30T02:06:34.653Z,1013.61
2022-10-30T02:07:34.692Z,1013.58
2022-10-30T02:08:34.672Z,1013.60
2022-10-30T02:09:34.679Z,1013.60
2022-10-30T02:10:34.680Z,1013.60
2022-10-30T02:11:34.691Z,1013.57
2022-10-30T02:12:34.659Z,1013.57
2022-10-30T02:13:34.666Z,1013.54
2022-10-30T02:14:34.662Z,1013.52
2022-10-30T02:15:34.681Z,1013.49
2022-10-30T02:16:34.677Z,1013.53
2022-10-30T02:17:34.698Z,1013.53
2022-10-30T02:18:34.776Z,1013.51
2022-10-30T02:19:34.716Z,1013.48
2022-10-30T02:20:34.682Z,1013.56
2022-10-30T02:21:34.671Z,1013.53
2022-10-30T02:22:34.726Z,1013.53
2022-10-30T02:23:34.673Z,1013.53
2022-10-30T02:24:34.679Z,1013.49
2022-10-30T02:25:34.680Z,1013.51
2022-10-30T02:26:34.670Z,1013.51
2022-10-30T02:27:34.713Z,1013.52
2022-10-30T02:28:34.669Z,1013.47
2022-10-30T02:29:34.668Z,1013.52
2022-10-30T02:30:34.679Z,1013.48
2022-10-30T02:31:34.679Z,1013.50
2022-10-30T02:32:34.706Z,1013.46
2022-10-30T02:33:34.681Z,1013.45
2022-10-30T02:34:34.670Z,1013.41
2022-10-30T02:35:34.683Z,1013.43
2022-10-30T02:36:34.675Z,1013.39
2022-10-30T02:37:34.684Z,1013.37
2022-10-30T02:38:34.708Z,1013.37
2022-10-30T02:39:34.701Z,1013.37
2022-10-30T02:40:34.684Z,1013.37
2022-10-30T02:41:34.679Z,1013.35
2022-10-30T02:42:34.684Z,1013.39
2022-10-30T02:43:34.678Z,1013.36
2022-10-30T02:44:34.713Z,1013.32
2022-10-30T02:45:34.691Z,1013.35
2022-10-30T02:46:34.692Z,1013.34
2022-10-30T02:47:34.713Z,1013.36
2022-10-30T02:48:34.676Z,1013.37
2022-10-30T02:49:34.681Z,1013.34
2022-10-30T02:50:34.692Z,1013.32
2022-10-30T02:51:34.690Z,1013.36
2022-10-30T02:52:34.689Z,1013.36
2022-10-30T02:53:34.685Z,1013.40
2022-10-30T02:54:34.683Z,1013.41
2022-10-30T02:55:34.714Z,1013.38
2022-10-30T02:56:34.688Z,1013.38
2022-10-30T02:57:34.699Z,1013.36
2022-10-30T02:58:34.700Z,1013.35
2022-10-30T02:59:34.720Z,1013.36
2022-10-30T03:00:34.685Z,1013.35
2022-10-30T03:01:34.717Z,1013.37
2022-10-30T03:02:34.704Z,1013.34
2022-10-30T03:03:34.697Z,1013.37
2022-10-30T03:04:34.693Z,1013.40
2022-10-30T03:05:34.714Z,1013.42
2022-10-30T03:06:34.697Z,1013.41
2022-10-30T03:07:34.689Z,1013.42
2022-10-30T03:08:34.696Z,1013.45
2022-10-30T03:09:34.701Z,1013.46
2022-10-30T03:10:34.698Z,1013.49
2022-10-30T03:11:34.712Z,1013.46
2022-10-30T03:12:34.687Z,1013.48
2022-10-30T03:13:34.707Z,1013.48
2022-10-30T03:14:34.697Z,1013.47
2022-10-30T03:15:34.702Z,1013.46
2022-10-30T03:16:34.718Z,1013.50
2022-10-30T03:17:34.764Z,1013.50
2022-10-30T03:18:34.688Z,1013.55
2022-10-30T03:19:34.703Z,1013.58
2022-10-30T03:20:34.691Z,1013.61
2022-10-30T03:21:34.699Z,1013.58
2022-10-30T03:22:34.716Z,1013.58
2022-10-30T03:23:34.706Z,1013.55
2022-10-30T03:24:34.692Z,1013.58
2022-10-30T03:25:34.693Z,1013.56
2022-10-30T03:26:34.739Z,1013.54
2022-10-30T03:27:34.728Z,1013.55
2022-10-30T03:28:34.711Z,1013.55
2022-10-30T03:29:34.723Z,1013.56
2022-10-30T03:30:34.697Z,1013.54
2022-10-30T03:31:34.708Z,1013.51
2022-10-30T03:32:34.723Z,1013.54
2022-10-30T03:33:34.707Z,1013.52
2022-10-30T03:34:34.699Z,1013.52
2022-10-30T03:35:34.711Z,1013.46
2022-10-30T03:36:34.718Z,1013.40
2022-10-30T03:37:34.709Z,1013.33
2022-10-30T03:38:34.714Z,1013.29
2022-10-30T03:39:34.698Z,1013.26
2022-10-30T03:40:34.707Z,1013.28
2022-10-30T03:41:34.704Z,1013.22
2022-10-30T03:42:34.711Z,1013.23
2022-10-30T03:43:34.718Z,1013.19
2022-10-30T03:44:34.713Z,1013.16
2022-10-30T03:45:34.711Z,1013.16
2022-10-30T03:46:34.731Z,1013.17
2022-10-30T03:47:34.731Z,1013.14
2022-10-30T03:48:34.731Z,1013.17
2022-10-30T03:49:34.725Z,1013.13
2022-10-30T03:50:34.711Z,1013.08
2022-10-30T03:51:34.715Z,1013.01
2022-10-30T03:52:34.711Z,1013.01
2022-10-30T03:53:34.734Z,1012.96
2022-10-30T03:54:34.709Z,1012.92
2022-10-30T03:55:34.710Z,1012.87
2022-10-30T03:56:34.718Z,1012.91
2022-10-30T03:57:34.719Z,1012.90
2022-10-30T03:58:34.711Z,1012.87
2022-10-30T03:59:34.734Z,1012.81
2022-10-30T04:00:34.714Z,1012.78
2022-10-30T04:01:34.898Z,1012.70
2022-10-30T04:02:34.723Z,1012.69
2022-10-30T04:03:34.718Z,1012.61
2022-10-30T04:04:34.727Z,1012.61
2022-10-30T04:05:34.708Z,1012.59
2022-10-30T04:06:34.737Z,1012.70
2022-10-30T04:07:34.712Z,1012.75
2022-10-30T04:08:34.724Z,1012.86
2022-10-30T04:09:34.711Z,1012.93
2022-10-30T04:10:34.810Z,1013.08
2022-10-30T04:11:34.714Z,1013.15
2022-10-30T04:12:34.718Z,1013.10
2022-10-30T04:13:37.549Z,1013.16
2022-10-30T04:14:34.719Z,1013.12
2022-10-30T04:15:34.718Z,1013.07
2022-10-30T04:16:34.741Z,1013.05
2022-10-30T04:17:34.728Z,1012.97
2022-10-30T04:18:34.722Z,1012.95
2022-10-30T04:19:34.727Z,1012.89
2022-10-30T04:20:34.712Z,1012.86
2022-10-30T04:21:34.757Z,1012.83
2022-10-30T04:22:34.736Z,1012.82
2022-10-30T04:23:34.731Z,1012.88
2022-10-30T04:24:34.717Z,1012.89
2022-10-30T04:25:34.728Z,1012.94
2022-10-30T04:26:34.721Z,1012.96
2022-10-30T04:27:34.749Z,1012.99
2022-10-30T04:28:34.727Z,1013.04
2022-10-30T04:29:34.717Z,1013.08
2022-10-30T04:30:34.717Z,1013.03
2022-10-30T04:31:34.725Z,1013.04
2022-10-30T04:32:34.722Z,1013.00
2022-10-30T04:33:34.758Z,1013.08
2022-10-30T04:34:34.729Z,1013.12
2022-10-30T04:35:34.725Z,1013.16
2022-10-30T04:36:34.718Z,1013.17
2022-10-30T04:37:34.720Z,1013.13
2022-10-30T04:38:34.718Z,1013.18
2022-10-30T04:39:34.744Z,1013.24
2022-10-30T04:40:34.730Z,1013.25
2022-10-30T04:41:34.734Z,1013.31
2022-10-30T04:42:34.726Z,1013.36
2022-10-30T04:43:34.726Z,1013.30
2022-10-30T04:44:34.734Z,1013.30
2022-10-30T04:45:34.735Z,1013.31
2022-10-30T04:46:34.730Z,1013.25
2022-10-30T04:47:34.742Z,1013.24
2022-10-30T04:48:34.734Z,1013.19
2022-10-30T04:49:34.736Z,1013.13
2022-10-30T04:50:34.727Z,1013.12
2022-10-30T04:51:34.747Z,1013.12
2022-10-30T04:52:34.733Z,1013.15
2022-10-30T04:53:34.740Z,1013.25
2022-10-30T04:54:34.760Z,1013.28
2022-10-30T04:55:34.733Z,1013.28
2022-10-30T04:56:34.735Z,1013.27
2022-10-30T04:57:34.723Z,1013.22
2022-10-30T04:58:34.736Z,1013.21
2022-10-30T04:59:34.744Z,1013.19
2022-10-30T05:00:34.735Z,1013.20
2022-10-30T05:01:34.845Z,1013.28
2022-10-30T05:02:34.902Z,1013.35
2022-10-30T05:03:34.735Z,1013.46
2022-10-30T05:04:34.737Z,1013.47
2022-10-30T05:05:34.735Z,1013.43
2022-10-30T05:06:34.745Z,1013.37
2022-10-30T05:07:34.762Z,1013.31
2022-10-30T05:08:34.743Z,1013.36
2022-10-30T05:09:34.740Z,1013.26
2022-10-30T05:10:34.758Z,1013.28
2022-10-30T05:11:34.729Z,1013.39
2022-10-30T05:12:34.735Z,1013.42
2022-10-30T05:13:34.744Z,1013.47
2022-10-30T05:14:34.733Z,1013.48
2022-10-30T05:15:34.736Z,1013.43
2022-10-30T05:16:34.742Z,1013.36
2022-10-30T05:17:34.749Z,1013.30
2022-10-30T05:18:34.739Z,1013.27
2022-10-30T05:19:34.736Z,1013.31
2022-10-30T05:20:34.746Z,1013.30
2022-10-30T05:21:34.747Z,1013.31
2022-10-30T05:22:34.761Z,1013.28
2022-10-30T05:23:34.741Z,1013.25
2022-10-30T05:24:34.736Z,1013.20
2022-10-30T05:25:34.741Z,1013.14
2022-10-30T05:26:34.749Z,1013.20
2022-10-30T05:27:34.746Z,1013.26
2022-10-30T05:28:34.755Z,1013.27
2022-10-30T05:29:34.747Z,1013.27
2022-10-30T05:30:34.752Z,1013.25
2022-10-30T05:31:34.750Z,1013.12
2022-10-30T05:32:34.769Z,1013.09
2022-10-30T05:33:34.761Z,1012.98
2022-10-30T05:34:34.754Z,1012.96
2022-10-30T05:35:34.746Z,1012.93
2022-10-30T05:36:34.751Z,1012.89
2022-10-30T05:37:34.742Z,1012.90
2022-10-30T05:38:34.764Z,1012.94
2022-10-30T05:39:34.738Z,1012.96
2022-10-30T05:40:34.746Z,1012.86
2022-10-30T05:41:34.751Z,1012.66
2022-10-30T05:42:34.747Z,1012.44
2022-10-30T05:43:34.761Z,1012.31
2022-10-30T05:44:59.229Z,1012.34
2022-10-30T05:45:34.750Z,1012.72
2022-10-30T05:46:34.757Z,1013.00
2022-10-30T05:47:34.745Z,1013.14
2022-10-30T05:48:34.757Z,1013.25
2022-10-30T05:49:34.755Z,1013.32
2022-10-30T05:50:34.754Z,1013.36
2022-10-30T05:51:38.031Z,1013.44
2022-10-30T05:52:34.749Z,1013.50
2022-10-30T05:53:34.753Z,1013.49
2022-10-30T05:54:34.762Z,1013.49
2022-10-30T05:55:34.758Z,1013.41
2022-10-30T05:56:34.746Z,1013.30
2022-10-30T05:57:34.762Z,1013.20
2022-10-30T05:58:34.770Z,1013.11
2022-10-30T05:59:34.781Z,1012.99
2022-10-30T06:00:34.765Z,1012.89
2022-10-30T06:01:34.897Z,1012.81
2022-10-30T06:02:34.812Z,1012.78
2022-10-30T06:03:34.752Z,1012.74
2022-10-30T06:04:34.756Z,1012.75
2022-10-30T06:05:34.771Z,1012.76
2022-10-30T06:06:34.747Z,1012.81
2022-10-30T06:07:34.757Z,1012.86
2022-10-30T06:08:34.750Z,1012.87
2022-10-30T06:09:34.755Z,1012.87
2022-10-30T06:10:34.771Z,1012.89
2022-10-30T06:11:34.782Z,1012.93
2022-10-30T06:12:34.761Z,1012.98
2022-10-30T06:13:34.784Z,1013.01
2022-10-30T06:14:34.760Z,1013.06
2022-10-30T06:15:34.766Z,1013.11
2022-10-30T06:16:34.762Z,1013.10
2022-10-30T06:17:34.748Z,1013.10
2022-10-30T06:18:34.765Z,1013.04
2022-10-30T06:19:34.783Z,1012.98
2022-10-30T06:20:34.793Z,1012.98
2022-10-30T06:21:34.749Z,1012.91
2022-10-30T06:22:34.764Z,1012.87
2022-10-30T06:23:34.764Z,1012.82
2022-10-30T06:24:34.763Z,1012.82
2022-10-30T06:25:40.369Z,1012.81
2022-10-30T06:26:34.771Z,1012.81
2022-10-30T06:27:34.831Z,1012.85
2022-10-30T06:28:34.753Z,1012.80
2022-10-30T06:29:34.762Z,1012.84
2022-10-30T06:30:34.764Z,1012.81
2022-10-30T06:31:34.757Z,1012.85
2022-10-30T06:32:34.764Z,1012.92
2022-10-30T06:33:34.754Z,1012.95
2022-10-30T06:34:34.812Z,1012.95
2022-10-30T06:35:34.761Z,1012.93
2022-10-30T06:36:34.807Z,1012.93
2022-10-30T06:37:34.772Z,1012.92
2022-10-30T06:38:34.771Z,1012.96
2022-10-30T06:39:34.751Z,1012.99
2022-10-30T06:40:34.770Z,1012.97
2022-10-30T06:41:34.752Z,1012.95
2022-10-30T06:42:34.755Z,1012.93
2022-10-30T06:43:34.752Z,1012.87
2022-10-30T06:44:34.768Z,1012.85
2022-10-30T06:45:34.763Z,1012.79
2022-10-30T06:46:34.777Z,1012.75
2022-10-30T06:47:34.787Z,1012.77
2022-10-30T06:48:34.755Z,1012.74
2022-10-30T06:49:34.777Z,1012.79
2022-10-30T06:50:34.771Z,1012.80
2022-10-30T06:51:34.753Z,1012.87
2022-10-30T06:52:34.769Z,1012.88
2022-10-30T06:53:34.767Z,1012.83
2022-10-30T06:54:34.805Z,1012.86
2022-10-30T06:55:34.764Z,1012.88
2022-10-30T06:56:34.759Z,1012.90
2022-10-30T06:57:34.766Z,1012.92
2022-10-30T06:58:34.777Z,1012.96
2022-10-30T06:59:34.774Z,1012.96
2022-10-30T07:00:34.821Z,1012.95
2022-10-30T07:01:34.891Z,1012.97
2022-10-30T07:02:34.757Z,1012.96
2022-10-30T07:03:34.756Z,1013.01
2022-10-30T07:04:34.761Z,1013.02
2022-10-30T07:05:34.781Z,1012.96
2022-10-30T07:06:34.764Z,1012.97
2022-10-30T07:07:34.762Z,1012.99
2022-10-30T07:08:34.765Z,1012.89
2022-10-30T07:09:34.757Z,1013.00
2022-10-30T07:10:34.762Z,1012.99
2022-10-30T07:11:34.782Z,1013.02
2022-10-30T07:12:34.766Z,1013.03
2022-10-30T07:13:34.769Z,1012.98
2022-10-30T07:14:34.769Z,1013.00
2022-10-30T07:15:34.850Z,1013.01
2022-10-30T07:16:34.764Z,1012.99
2022-10-30T07:17:34.791Z,1012.96
2022-10-30T07:18:34.758Z,1012.95
2022-10-30T07:19:34.773Z,1012.92
2022-10-30T07:20:34.769Z,1012.97
2022-10-30T07:21:34.775Z,1012.97
2022-10-30T07:22:34.789Z,1013.03
2022-10-30T07:23:34.756Z,1013.07
2022-10-30T07:24:34.763Z,1013.15
2022-10-30T07:25:34.777Z,1013.22
2022-10-30T07:26:34.769Z,1013.23
2022-10-30T07:27:34.764Z,1013.18
2022-10-30T07:28:34.777Z,1013.16
2022-10-30T07:29:34.779Z,1013.25
2022-10-30T07:30:34.757Z,1013.26
2022-10-30T07:31:41.957Z,1013.27
2022-10-30T07:32:34.798Z,1013.23
2022-10-30T07:33:34.786Z,1013.24
2022-10-30T07:34:34.774Z,1013.23
2022-10-30T07:35:34.781Z,1013.30
2022-10-30T07:36:34.766Z,1013.27
2022-10-30T07:37:34.774Z,1013.21
2022-10-30T07:38:34.779Z,1013.24
2022-10-30T07:39:34.785Z,1013.30
2022-10-30T07:40:34.764Z,1013.34
2022-10-30T07:41:34.773Z,1013.25
2022-10-30T07:42:34.787Z,1013.29
2022-10-30T07:43:34.770Z,1013.33
2022-10-30T07:44:34.793Z,1013.29
2022-10-30T07:45:34.780Z,1013.18
2022-10-30T07:46:34.786Z,1013.17
2022-10-30T07:47:34.781Z,1013.29
2022-10-30T07:48:34.789Z,1013.32
2022-10-30T07:49:34.802Z,1013.28
2022-10-30T07:50:34.771Z,1013.20
2022-10-30T07:51:34.788Z,1013.32
2022-10-30T07:52:34.789Z,1013.33
2022-10-30T07:53:34.788Z,1013.28
2022-10-30T07:54:34.782Z,1013.18
2022-10-30T07:55:34.785Z,1013.22
2022-10-30T07:56:34.779Z,1013.27
2022-10-30T07:57:34.793Z,1013.18
2022-10-30T07:58:34.779Z,1013.17
2022-10-30T07:59:34.819Z,1013.11
2022-10-30T08:00:34.792Z,1013.16
2022-10-30T08:01:34.925Z,1013.26
2022-10-30T08:02:34.879Z,1013.27
2022-10-30T08:03:34.803Z,1013.29
2022-10-30T08:04:34.794Z,1013.28
2022-10-30T08:05:34.797Z,1013.25
2022-10-30T08:06:34.791Z,1013.25
2022-10-30T08:07:34.812Z,1013.19
2022-10-30T08:08:37.913Z,1013.13
2022-10-30T08:09:34.793Z,1013.34
2022-10-30T08:10:34.819Z,1013.38
2022-10-30T08:11:34.797Z,1013.31
2022-10-30T08:12:34.802Z,1013.31
2022-10-30T08:13:34.819Z,1013.41
2022-10-30T08:14:34.801Z,1013.46
2022-10-30T08:15:34.798Z,1013.42
2022-10-30T08:16:34.793Z,1013.48
2022-10-30T08:17:34.797Z,1013.50
2022-10-30T08:18:34.824Z,1013.45
2022-10-30T08:19:34.803Z,1013.47
2022-10-30T08:20:34.876Z,1013.43
2022-10-30T08:21:34.819Z,1013.46
2022-10-30T08:22:34.810Z,1013.46
2022-10-30T08:23:34.821Z,1013.42
2022-10-30T08:24:34.828Z,1013.44
2022-10-30T08:25:34.811Z,1013.51
2022-10-30T08:26:34.826Z,1013.45
2022-10-30T08:27:34.822Z,1013.44
2022-10-30T08:28:34.817Z,1013.44
2022-10-30T08:29:34.864Z,1013.44
2022-10-30T08:30:34.824Z,1013.43
2022-10-30T08:31:34.819Z,1013.46
2022-10-30T08:32:34.817Z,1013.47
2022-10-30T08:33:34.823Z,1013.48
2022-10-30T08:34:34.818Z,1013.45
2022-10-30T08:36:34.834Z,1013.41
2022-10-30T08:37:34.836Z,1013.44
2022-10-30T08:38:34.843Z,1013.47
2022-10-30T08:39:34.841Z,1013.49
2022-10-30T08:40:34.851Z,1013.46
2022-10-30T08:41:34.857Z,1013.50
2022-10-30T08:42:34.838Z,1013.47
2022-10-30T08:43:34.862Z,1013.42
2022-10-30T08:44:34.859Z,1013.50
2022-10-30T08:45:34.857Z,1013.53
2022-10-30T08:46:34.879Z,1013.48
2022-10-30T08:47:34.862Z,1013.47
2022-10-30T08:48:34.849Z,1013.50
2022-10-30T08:49:34.864Z,1013.45
2022-10-30T08:50:34.860Z,1013.47
2022-10-30T08:51:34.857Z,1013.50
2022-10-30T08:52:34.876Z,1013.48
2022-10-30T08:53:34.874Z,1013.50
2022-10-30T08:54:34.878Z,1013.50
2022-10-30T08:55:34.866Z,1013.54
2022-10-30T08:56:34.876Z,1013.52
2022-10-30T08:57:34.885Z,1013.48
2022-10-30T08:58:34.877Z,1013.53
2022-10-30T08:59:34.884Z,1013.54
2022-10-30T09:00:34.887Z,1013.50
2022-10-30T09:01:35.038Z,1013.45
2022-10-30T09:02:35.049Z,1013.46
2022-10-30T09:03:34.905Z,1013.47
2022-10-30T09:04:34.884Z,1013.43
2022-10-30T09:05:34.890Z,1013.41
2022-10-30T09:06:34.922Z,1013.42
2022-10-30T09:07:34.895Z,1013.45
2022-10-30T09:08:34.899Z,1013.43
2022-10-30T09:09:34.910Z,1013.43
2022-10-30T09:10:34.918Z,1013.40
2022-10-30T09:11:34.908Z,1013.49
2022-10-30T09:12:34.915Z,1013.46
2022-10-30T09:13:34.922Z,1013.43
2022-10-30T09:14:34.916Z,1013.45
2022-10-30T09:15:34.915Z,1013.42
2022-10-30T09:16:34.939Z,1013.41
2022-10-30T09:17:34.934Z,1013.44
2022-10-30T09:18:34.933Z,1013.44
2022-10-30T09:19:34.986Z,1013.39
2022-10-30T09:20:34.945Z,1013.43
2022-10-30T09:21:34.976Z,1013.45
2022-10-30T09:22:34.933Z,1013.48
2022-10-30T09:23:34.938Z,1013.42
2022-10-30T09:24:34.942Z,1013.37
2022-10-30T09:25:34.948Z,1013.39
2022-10-30T09:26:34.941Z,1013.34
2022-10-30T09:27:34.980Z,1013.29
2022-10-30T09:28:34.955Z,1013.34
2022-10-30T09:29:34.966Z,1013.28
2022-10-30T09:30:34.973Z,1013.27
2022-10-30T09:31:35.052Z,1013.27
2022-10-30T09:32:34.980Z,1013.33
2022-10-30T09:33:34.975Z,1013.24
2022-10-30T09:34:34.986Z,1013.21
2022-10-30T09:35:34.998Z,1013.21
2022-10-30T09:36:34.994Z,1013.16
2022-10-30T09:37:34.992Z,1013.13
2022-10-30T09:38:35.007Z,1013.14
2022-10-30T09:39:35.033Z,1013.16
2022-10-30T09:40:35.018Z,1013.17
2022-10-30T09:41:35.011Z,1013.17
2022-10-30T09:42:35.018Z,1013.18
2022-10-30T09:43:35.015Z,1013.22
2022-10-30T09:44:35.029Z,1013.26
2022-10-30T09:45:35.038Z,1013.32
2022-10-30T09:46:35.030Z,1013.35
2022-10-30T09:47:35.032Z,1013.42
2022-10-30T09:48:35.040Z,1013.39
2022-10-30T09:49:35.049Z,1013.35
2022-10-30T09:50:37.338Z,1013.34
2022-10-30T09:51:35.042Z,1013.36
2022-10-30T09:52:35.046Z,1013.39
2022-10-30T09:53:35.056Z,1013.40
2022-10-30T09:54:35.065Z,1013.39
2022-10-30T09:55:35.066Z,1013.37
2022-10-30T09:56:35.086Z,1013.39
2022-10-30T09:57:35.076Z,1013.44
2022-10-30T09:58:35.073Z,1013.50
2022-10-30T09:59:35.094Z,1013.42
2022-10-30T10:00:35.081Z,1013.39
2022-10-30T10:01:35.180Z,1013.48
2022-10-30T10:02:35.300Z,1013.48
2022-10-30T10:03:35.106Z,1013.51
2022-10-30T10:04:35.123Z,1013.50
2022-10-30T10:05:35.141Z,1013.46
2022-10-30T10:06:35.114Z,1013.49
2022-10-30T10:07:35.111Z,1013.51
2022-10-30T10:08:35.120Z,1013.50
2022-10-30T10:09:35.188Z,1013.54
2022-10-30T10:10:35.147Z,1013.52
2022-10-30T10:11:35.158Z,1013.52
2022-10-30T10:12:35.144Z,1013.52
2022-10-30T10:13:35.173Z,1013.49
2022-10-30T10:14:35.148Z,1013.40
2022-10-30T10:15:35.164Z,1013.41
2022-10-30T10:16:35.183Z,1013.43
2022-10-30T10:17:35.174Z,1013.45
2022-10-30T10:18:35.204Z,1013.51
2022-10-30T10:19:35.177Z,1013.47
2022-10-30T10:20:35.189Z,1013.46
2022-10-30T10:21:35.212Z,1013.47
2022-10-30T10:22:35.207Z,1013.49
2022-10-30T10:23:35.210Z,1013.46
2022-10-30T10:24:35.205Z,1013.49
2022-10-30T10:25:35.225Z,1013.49
2022-10-30T10:26:35.238Z,1013.51
2022-10-30T10:27:35.256Z,1013.49
2022-10-30T10:28:36.783Z,1013.52
2022-10-30T10:29:35.240Z,1013.55
2022-10-30T10:30:35.238Z,1013.47
2022-10-30T10:31:35.247Z,1013.47
2022-10-30T10:32:35.274Z,1013.46
2022-10-30T10:33:35.278Z,1013.46
2022-10-30T10:34:35.272Z,1013.47
2022-10-30T10:35:35.290Z,1013.38
2022-10-30T10:36:35.286Z,1013.40
2022-10-30T10:37:35.312Z,1013.40
2022-10-30T10:38:35.321Z,1013.47
2022-10-30T10:39:35.315Z,1013.37
2022-10-30T10:40:35.316Z,1013.38
2022-10-30T10:41:35.305Z,1013.38
2022-10-30T10:42:35.324Z,1013.38
2022-10-30T10:43:35.342Z,1013.42
2022-10-30T10:44:35.330Z,1013.43
2022-10-30T10:45:35.341Z,1013.33
2022-10-30T10:46:35.341Z,1013.34
2022-10-30T10:47:35.353Z,1013.35
2022-10-30T10:48:35.366Z,1013.36
2022-10-30T10:49:39.021Z,1013.36
2022-10-30T10:50:35.375Z,1013.29
2022-10-30T10:51:35.373Z,1013.31
2022-10-30T10:52:35.396Z,1013.33
2022-10-30T10:53:35.409Z,1013.39
2022-10-30T10:54:35.386Z,1013.37
2022-10-30T10:55:35.402Z,1013.35
2022-10-30T10:56:35.406Z,1013.37
2022-10-30T10:57:35.405Z,1013.42
2022-10-30T10:58:35.421Z,1013.45
2022-10-30T10:59:35.440Z,1013.40
2022-10-30T11:00:35.428Z,1013.43
2022-10-30T11:01:35.573Z,1013.40
2022-10-30T11:02:35.469Z,1013.41
2022-10-30T11:03:35.441Z,1013.37
2022-10-30T11:04:35.452Z,1013.39
2022-10-30T11:05:35.463Z,1013.36
2022-10-30T11:06:35.478Z,1013.32
2022-10-30T11:07:35.491Z,1013.29
2022-10-30T11:08:35.513Z,1013.26
2022-10-30T11:09:35.500Z,1013.26
2022-10-30T11:10:35.493Z,1013.29
2022-10-30T11:11:35.509Z,1013.27
2022-10-30T11:12:36.575Z,1013.30
2022-10-30T11:13:35.524Z,1013.28
2022-10-30T11:14:35.520Z,1013.27
2022-10-30T11:15:35.535Z,1013.27
2022-10-30T11:16:35.537Z,1013.27
2022-10-30T11:17:35.576Z,1013.27
2022-10-30T11:18:35.563Z,1013.31
2022-10-30T11:19:35.570Z,1013.25
2022-10-30T11:20:35.564Z,1013.24
2022-10-30T11:21:35.585Z,1013.27
2022-10-30T11:22:35.593Z,1013.26
2022-10-30T11:23:35.615Z,1013.27
2022-10-30T11:24:35.597Z,1013.32
2022-10-30T11:25:35.608Z,1013.26
2022-10-30T11:26:35.632Z,1013.30
2022-10-30T11:27:35.632Z,1013.27
2022-10-30T11:28:35.665Z,1013.29
2022-10-30T11:29:35.647Z,1013.27
2022-10-30T11:30:35.641Z,1013.23
2022-10-30T11:31:35.649Z,1013.24
2022-10-30T11:32:35.722Z,1013.19
2022-10-30T11:33:35.694Z,1013.21
2022-10-30T11:34:35.693Z,1013.21
2022-10-30T11:35:35.688Z,1013.24
2022-10-30T11:36:35.687Z,1013.26
2022-10-30T11:37:35.692Z,1013.28
2022-10-30T11:38:35.698Z,1013.29
2022-10-30T11:39:35.707Z,1013.31
2022-10-30T11:40:35.721Z,1013.30
2022-10-30T11:41:35.738Z,1013.30
2022-10-30T11:42:35.736Z,1013.26
2022-10-30T11:43:35.730Z,1013.23
2022-10-30T11:44:35.771Z,1013.22
2022-10-30T11:45:35.744Z,1013.23
2022-10-30T11:46:35.761Z,1013.22
2022-10-30T11:48:35.762Z,1013.20
2022-10-30T11:49:35.809Z,1013.20
2022-10-30T11:50:35.777Z,1013.15
2022-10-30T11:51:35.845Z,1013.18
2022-10-30T11:52:35.805Z,1013.18
2022-10-30T11:53:35.794Z,1013.19
2022-10-30T11:54:35.846Z,1013.16
2022-10-30T11:55:35.808Z,1013.17
2022-10-30T11:56:35.829Z,1013.17
2022-10-30T11:57:35.834Z,1013.20
2022-10-30T11:58:35.831Z,1013.23
2022-10-30T11:59:35.857Z,1013.20
2022-10-30T12:00:35.834Z,1013.17
2022-10-30T12:01:35.897Z,1013.18
2022-10-30T12:03:35.854Z,1013.15
2022-10-30T12:04:35.861Z,1013.10
2022-10-30T12:05:35.881Z,1013.11
2022-10-30T12:06:35.871Z,1013.08
2022-10-30T12:07:35.901Z,1013.14
2022-10-30T12:08:35.902Z,1013.08